createdAt,value
2022-10-03T00:04:12.655Z,8.80
2022-10-03T00:06:58.146Z,8.70
2022-10-03T00:09:39.586Z,8.70
2022-10-03T00:12:14.203Z,8.70
2022-10-03T00:14:54.812Z,8.60
2022-10-03T00:17:42.604Z,8.60
2022-10-03T00:20:31.430Z,8.60
2022-10-03T00:23:20.528Z,8.60
2022-10-03T00:25:59.518Z,8.50
2022-10-03T00:28:50.054Z,8.50
2022-10-03T00:31:34.607Z,8.40
2022-10-03T00:34:07.829Z,8.40
2022-10-03T00:37:19.085Z,8.40
2022-10-03T00:40:08.239Z,8.40
2022-10-03T00:42:44.957Z,8.40
2022-10-03T00:45:42.576Z,8.40
2022-10-03T00:48:34.625Z,8.40
2022-10-03T00:51:52.245Z,8.30
2022-10-03T00:55:09.997Z,8.30
2022-10-03T00:57:52.415Z,8.30
2022-10-03T01:00:34.245Z,8.20
2022-10-03T01:03:20.769Z,8.20
2022-10-03T01:06:20.989Z,8.10
2022-10-03T01:09:08.224Z,8.10
2022-10-03T01:11:35.437Z,8.10
2022-10-03T01:14:18.189Z,8.10
2022-10-03T01:17:04.731Z,8.10
2022-10-03T01:20:00.619Z,8.10
2022-10-03T01:23:24.837Z,8.10
2022-10-03T01:26:14.921Z,8.10
2022-10-03T01:29:17.074Z,8.00
2022-10-03T01:31:52.160Z,8.00
2022-10-03T01:34:56.816Z,8.00
2022-10-03T01:37:33.103Z,8.00
2022-10-03T01:40:17.074Z,7.90
2022-10-03T01:43:32.320Z,7.90
2022-10-03T01:46:28.154Z,7.90
2022-10-03T01:48:59.573Z,7.90
2022-10-03T01:52:05.679Z,7.90
2022-10-03T01:54:51.937Z,7.90
2022-10-03T01:57:35.803Z,7.90
2022-10-03T02:00:17.697Z,7.80
2022-10-03T02:02:54.104Z,7.80
2022-10-03T02:05:58.359Z,7.80
2022-10-03T02:08:34.063Z,7.80
2022-10-03T02:11:07.046Z,7.70
2022-10-03T02:14:12.715Z,7.70
2022-10-03T02:16:44.090Z,7.70
2022-10-03T02:19:31.417Z,7.70
2022-10-03T02:22:00.714Z,7.70
2022-10-03T02:24:38.088Z,7.70
2022-10-03T02:27:11.982Z,7.70
2022-10-03T02:29:57.327Z,7.60
2022-10-03T02:32:48.933Z,7.60
2022-10-03T02:35:48.212Z,7.60
2022-10-03T02:38:17.959Z,7.60
2022-10-03T02:40:54.105Z,7.60
2022-10-03T02:44:00.388Z,7.60
2022-10-03T02:46:46.560Z,7.50
2022-10-03T02:49:35.722Z,7.50
2022-10-03T02:52:24.148Z,7.50
2022-10-03T02:55:22.552Z,7.50
2022-10-03T02:58:02.761Z,7.50
2022-10-03T03:00:45.174Z,7.50
2022-10-03T03:03:41.821Z,7.40
2022-10-03T03:06:18.049Z,7.40
2022-10-03T03:09:29.732Z,7.40
2022-10-03T03:12:24.530Z,7.40
2022-10-03T03:15:13.633Z,7.40
2022-10-03T03:17:53.782Z,7.40
2022-10-03T03:20:39.260Z,7.40
2022-10-03T03:23:37.382Z,7.40
2022-10-03T03:26:12.257Z,7.40
2022-10-03T03:28:55.557Z,7.40
2022-10-03T03:31:54.822Z,7.30
2022-10-03T03:34:34.193Z,7.30
2022-10-03T03:37:20.027Z,7.30
2022-10-03T03:40:02.538Z,7.30
2022-10-03T03:43:00.615Z,7.30
2022-10-03T03:45:41.210Z,7.30
2022-10-03T03:48:41.330Z,7.30
2022-10-03T03:51:19.287Z,7.30
2022-10-03T03:54:02.092Z,7.30
2022-10-03T03:56:51.881Z,7.30
2022-10-03T03:59:29.520Z,7.30
2022-10-03T04:02:06.604Z,7.30
2022-10-03T04:05:06.017Z,7.30
2022-10-03T04:07:55.077Z,7.30
2022-10-03T04:10:38.581Z,7.30
2022-10-03T04:13:24.314Z,7.30
2022-10-03T04:16:09.891Z,7.20
2022-10-03T04:18:59.004Z,7.20
2022-10-03T04:21:35.556Z,7.20
2022-10-03T04:24:08.459Z,7.10
2022-10-03T04:27:12.658Z,7.10
2022-10-03T04:29:59.955Z,7.20
2022-10-03T04:32:56.880Z,7.20
2022-10-03T04:35:42.363Z,7.20
2022-10-03T04:38:44.585Z,7.20
2022-10-03T04:41:27.791Z,7.30
2022-10-03T04:44:32.713Z,7.20
2022-10-03T04:47:20.959Z,7.20
2022-10-03T04:50:15.225Z,7.20
2022-10-03T04:52:56.927Z,7.20
2022-10-03T04:55:30.186Z,7.20
2022-10-03T04:58:26.996Z,7.20
2022-10-03T05:01:18.125Z,7.20
2022-10-03T05:04:10.679Z,7.20
2022-10-03T05:06:53.805Z,7.20
2022-10-03T05:09:24.011Z,7.20
2022-10-03T05:12:06.541Z,7.20
2022-10-03T05:14:43.489Z,7.20
2022-10-03T05:17:31.042Z,7.20
2022-10-03T05:20:27.856Z,7.20
2022-10-03T05:23:13.865Z,7.30
2022-10-03T05:25:55.450Z,7.30
2022-10-03T05:28:54.323Z,7.30
2022-10-03T05:31:33.862Z,7.20
2022-10-03T05:34:25.999Z,7.20
2022-10-03T05:37:10.112Z,7.20
2022-10-03T05:39:59.007Z,7.20
2022-10-03T05:42:49.943Z,7.20
2022-10-03T05:45:24.472Z,7.20
2022-10-03T05:48:23.525Z,7.20
2022-10-03T05:51:38.677Z,7.20
2022-10-03T05:54:24.779Z,7.10
2022-10-03T05:57:36.154Z,7.10
2022-10-03T06:00:10.540Z,7.00
2022-10-03T06:03:05.735Z,7.10
2022-10-03T06:06:09.259Z,7.10
2022-10-03T06:09:06.105Z,7.00
2022-10-03T06:11:58.288Z,7.00
2022-10-03T06:14:36.496Z,7.00
2022-10-03T06:17:29.674Z,7.00
2022-10-03T06:20:15.738Z,7.10
2022-10-03T06:23:13.638Z,7.10
2022-10-03T06:25:59.359Z,7.20
2022-10-03T06:28:57.193Z,7.20
2022-10-03T06:31:45.295Z,7.20
2022-10-03T06:34:46.605Z,7.30
2022-10-03T06:37:58.802Z,7.40
2022-10-03T06:40:50.856Z,7.40
2022-10-03T06:43:33.511Z,7.40
2022-10-03T06:46:23.574Z,7.50
2022-10-03T06:49:09.911Z,7.60
2022-10-03T06:52:01.237Z,7.60
2022-10-03T06:54:34.345Z,7.60
2022-10-03T06:57:17.820Z,7.70
2022-10-03T07:00:04.502Z,7.70
2022-10-03T07:03:04.065Z,7.80
2022-10-03T07:06:01.696Z,7.80
2022-10-03T07:08:57.854Z,7.90
2022-10-03T07:11:47.273Z,8.00
2022-10-03T07:14:35.543Z,8.20
2022-10-03T07:17:23.380Z,8.40
2022-10-03T07:19:53.032Z,8.50
2022-10-03T07:23:13.414Z,8.60
2022-10-03T07:26:04.469Z,8.60
2022-10-03T07:29:00.241Z,8.70
2022-10-03T07:32:12.432Z,8.80
2022-10-03T07:34:58.235Z,9.00
2022-10-03T07:38:13.270Z,9.10
2022-10-03T07:40:58.831Z,9.30
2022-10-03T07:43:56.632Z,9.40
2022-10-03T07:46:39.257Z,9.60
2022-10-03T07:49:19.801Z,9.70
2022-10-03T07:51:46.779Z,9.80
2022-10-03T07:54:54.112Z,9.90
2022-10-03T07:57:23.495Z,10.00
2022-10-03T08:00:07.883Z,10.10
2022-10-03T08:03:02.632Z,10.30
2022-10-03T08:05:46.509Z,10.40
2022-10-03T08:08:35.339Z,10.50
2022-10-03T08:11:33.613Z,10.70
2022-10-03T08:14:22.057Z,10.80
2022-10-03T08:17:26.883Z,11.00
2022-10-03T08:20:15.559Z,11.10
2022-10-03T08:23:07.997Z,11.30
2022-10-03T08:25:47.149Z,11.40
2022-10-03T08:28:36.339Z,11.50
2022-10-03T08:31:18.701Z,11.60
2022-10-03T08:33:52.391Z,11.80
2022-10-03T08:36:47.049Z,11.80
2022-10-03T08:39:42.162Z,12.00
2022-10-03T08:42:32.423Z,12.10
2022-10-03T08:45:03.974Z,12.20
2022-10-03T08:47:40.209Z,12.30
2022-10-03T08:50:24.188Z,12.50
2022-10-03T08:53:23.164Z,12.70
2022-10-03T08:56:15.403Z,12.80
2022-10-03T08:59:14.784Z,13.00
2022-10-03T09:02:28.740Z,13.10
2022-10-03T09:05:28.120Z,13.40
2022-10-03T09:07:56.389Z,13.50
2022-10-03T09:10:57.713Z,13.70
2022-10-03T09:13:36.455Z,13.90
2022-10-03T09:16:41.888Z,14.10
2022-10-03T09:19:49.369Z,14.40
2022-10-03T09:22:38.573Z,14.70
2022-10-03T09:25:20.190Z,15.00
2022-10-03T09:27:50.410Z,15.30
2022-10-03T09:31:04.284Z,15.50
2022-10-03T09:33:52.391Z,15.70
2022-10-03T09:36:54.124Z,16.10
2022-10-03T09:39:36.214Z,16.30
2022-10-03T09:42:38.434Z,16.40
2022-10-03T09:45:15.519Z,16.60
2022-10-03T09:48:04.576Z,16.90
2022-10-03T09:50:55.471Z,17.20
2022-10-03T09:53:55.899Z,17.40
2022-10-03T09:56:48.108Z,17.70
2022-10-03T09:59:22.567Z,17.90
2022-10-03T10:02:28.001Z,18.10
2022-10-03T10:05:04.615Z,18.00
2022-10-03T10:08:09.687Z,18.20
2022-10-03T10:10:55.862Z,18.50
2022-10-03T10:13:49.856Z,18.80
2022-10-03T10:16:48.342Z,19.00
2022-10-03T10:19:34.515Z,19.10
2022-10-03T10:22:33.739Z,19.20
2022-10-03T10:25:44.947Z,19.40
2022-10-03T10:28:32.510Z,19.50
2022-10-03T10:31:08.547Z,19.50
2022-10-03T10:34:14.262Z,19.80
2022-10-03T10:37:07.734Z,20.10
2022-10-03T10:40:06.485Z,20.30
2022-10-03T10:43:15.410Z,20.60
2022-10-03T10:46:10.625Z,20.80
2022-10-03T10:49:15.520Z,20.70
2022-10-03T10:54:33.246Z,20.90
2022-10-03T10:57:27.040Z,20.90
2022-10-03T11:00:22.574Z,20.60
2022-10-03T11:03:09.297Z,20.40
2022-10-03T11:06:07.626Z,20.60
2022-10-03T11:08:50.187Z,20.60
2022-10-03T11:11:37.681Z,20.80
2022-10-03T11:14:42.510Z,21.10
2022-10-03T11:17:15.907Z,21.20
2022-10-03T11:20:29.685Z,20.90
2022-10-03T11:23:22.587Z,20.60
2022-10-03T11:26:11.721Z,20.50
2022-10-03T11:29:09.375Z,20.10
2022-10-03T11:32:27.876Z,19.80
2022-10-03T11:35:38.571Z,19.70
2022-10-03T11:38:18.350Z,19.60
2022-10-03T11:41:26.412Z,19.70
2022-10-03T11:44:15.359Z,19.80
2022-10-03T11:47:23.599Z,19.60
2022-10-03T11:50:09.364Z,19.50
2022-10-03T11:53:01.391Z,19.40
2022-10-03T11:55:53.680Z,19.50
2022-10-03T11:58:25.701Z,19.50
2022-10-03T12:01:08.538Z,19.60
2022-10-03T12:03:50.325Z,19.90
2022-10-03T12:06:57.761Z,20.20
2022-10-03T12:10:03.406Z,20.80
2022-10-03T12:12:42.307Z,21.40
2022-10-03T12:15:26.724Z,21.60
2022-10-03T12:18:09.706Z,22.00
2022-10-03T12:20:48.880Z,22.20
2022-10-03T12:23:27.940Z,22.10
2022-10-03T12:25:57.844Z,22.10
2022-10-03T12:28:30.272Z,22.10
2022-10-03T12:30:57.740Z,21.80
2022-10-03T12:33:39.570Z,21.40
2022-10-03T12:36:16.046Z,21.40
2022-10-03T12:38:57.019Z,21.40
2022-10-03T12:41:54.961Z,21.30
2022-10-03T12:44:52.270Z,21.30
2022-10-03T12:47:55.346Z,21.30
2022-10-03T12:50:43.953Z,21.30
2022-10-03T12:53:23.946Z,21.20
2022-10-03T12:56:11.170Z,21.30
2022-10-03T12:58:57.829Z,21.30
2022-10-03T13:02:08.238Z,21.50
2022-10-03T13:04:47.722Z,21.50
2022-10-03T13:07:28.132Z,21.60
2022-10-03T13:10:15.028Z,21.80
2022-10-03T13:12:50.356Z,22.00
2022-10-03T13:15:18.357Z,22.20
2022-10-03T13:18:10.121Z,22.30
2022-10-03T13:20:45.813Z,22.40
2022-10-03T13:23:33.723Z,22.60
2022-10-03T13:26:20.149Z,22.70
2022-10-03T13:29:12.958Z,22.90
2022-10-03T13:32:05.878Z,23.00
2022-10-03T13:34:55.733Z,23.10
2022-10-03T13:37:35.856Z,23.20
2022-10-03T13:40:13.027Z,23.30
2022-10-03T13:42:58.012Z,23.30
2022-10-03T13:45:27.520Z,23.20
2022-10-03T13:48:07.925Z,23.00
2022-10-03T13:50:58.569Z,22.50
2022-10-03T13:53:36.853Z,22.20
2022-10-03T13:56:22.094Z,21.80
2022-10-03T13:59:02.898Z,21.90
2022-10-03T14:01:57.268Z,22.00
2022-10-03T14:04:27.708Z,22.20
2022-10-03T14:07:33.370Z,22.10
2022-10-03T14:10:19.253Z,22.10
2022-10-03T14:13:17.821Z,22.00
2022-10-03T14:16:00.343Z,21.70
2022-10-03T14:18:31.046Z,21.40
2022-10-03T14:21:30.577Z,21.40
2022-10-03T14:24:12.295Z,20.90
2022-10-03T14:26:46.207Z,20.60
2022-10-03T14:29:38.583Z,20.20
2022-10-03T14:32:46.396Z,20.10
2022-10-03T14:35:34.636Z,20.10
2022-10-03T14:38:10.639Z,20.10
2022-10-03T14:40:55.274Z,20.20
2022-10-03T14:43:46.387Z,20.20
2022-10-03T14:46:16.026Z,20.10
2022-10-03T14:48:50.420Z,19.80
2022-10-03T14:51:26.828Z,19.60
2022-10-03T14:54:03.127Z,19.50
2022-10-03T14:56:34.748Z,19.60
2022-10-03T14:59:19.189Z,19.50
2022-10-03T15:01:59.901Z,19.30
2022-10-03T15:04:35.367Z,19.30
2022-10-03T15:07:04.987Z,19.40
2022-10-03T15:09:42.666Z,19.40
2022-10-03T15:12:18.807Z,19.40
2022-10-03T15:15:01.903Z,19.40
2022-10-03T15:17:33.379Z,19.50
2022-10-03T15:20:02.792Z,19.40
2022-10-03T15:22:36.132Z,19.50
2022-10-03T15:25:15.038Z,19.40
2022-10-03T15:27:45.084Z,19.40
2022-10-03T15:30:31.541Z,19.40
2022-10-03T15:33:26.725Z,19.30
2022-10-03T15:35:59.314Z,19.30
2022-10-03T15:38:38.205Z,19.20
2022-10-03T15:41:28.527Z,19.20
2022-10-03T15:44:05.148Z,19.20
2022-10-03T15:46:32.418Z,19.20
2022-10-03T15:49:06.332Z,19.10
2022-10-03T15:51:38.935Z,19.10
2022-10-03T15:54:11.914Z,19.10
2022-10-03T15:56:42.614Z,19.00
2022-10-03T15:59:22.107Z,18.90
2022-10-03T16:01:54.598Z,18.80
2022-10-03T16:04:35.752Z,18.60
2022-10-03T16:07:12.693Z,18.60
2022-10-03T16:10:05.122Z,18.40
2022-10-03T16:12:56.778Z,18.40
2022-10-03T16:15:24.082Z,18.30
2022-10-03T16:17:56.667Z,18.20
2022-10-03T16:20:35.237Z,18.20
2022-10-03T16:23:19.904Z,18.10
2022-10-03T16:26:00.965Z,18.00
2022-10-03T16:28:42.239Z,18.00
2022-10-03T16:31:19.058Z,17.90
2022-10-03T16:33:58.298Z,17.80
2022-10-03T16:36:26.487Z,17.70
2022-10-03T16:39:01.614Z,17.70
2022-10-03T16:41:40.984Z,17.60
2022-10-03T16:44:39.942Z,17.50
2022-10-03T16:47:09.287Z,17.40
2022-10-03T16:50:14.769Z,17.40
2022-10-03T16:52:44.562Z,17.30
2022-10-03T16:55:48.892Z,17.10
2022-10-03T16:58:23.780Z,17.00
2022-10-03T17:01:25.480Z,16.90
2022-10-03T17:03:57.749Z,16.80
2022-10-03T17:06:31.254Z,16.80
2022-10-03T17:09:05.098Z,16.70
2022-10-03T17:11:35.838Z,16.60
2022-10-03T17:14:07.508Z,16.50
2022-10-03T17:16:44.770Z,16.50
2022-10-03T17:19:28.640Z,16.30
2022-10-03T17:22:01.342Z,16.20
2022-10-03T17:25:00.568Z,16.10
2022-10-03T17:27:41.832Z,16.00
2022-10-03T17:30:12.671Z,15.90
2022-10-03T17:32:43.569Z,15.80
2022-10-03T17:35:38.959Z,15.70
2022-10-03T17:38:37.551Z,15.60
2022-10-03T17:41:04.977Z,15.50
2022-10-03T17:43:37.016Z,15.40
2022-10-03T17:46:36.440Z,15.40
2022-10-03T17:49:21.001Z,15.30
2022-10-03T17:51:54.356Z,15.20
2022-10-03T17:54:30.719Z,15.10
2022-10-03T17:57:26.720Z,15.00
2022-10-03T18:00:15.508Z,15.00
2022-10-03T18:02:55.922Z,14.90
2022-10-03T18:05:50.776Z,14.80
2022-10-03T18:08:30.748Z,14.70
2022-10-03T18:11:04.287Z,14.70
2022-10-03T18:13:39.351Z,14.60
2022-10-03T18:16:34.721Z,14.60
2022-10-03T18:19:53.549Z,14.60
2022-10-03T18:22:29.498Z,14.50
2022-10-03T18:26:08.372Z,14.50
2022-10-03T18:28:45.851Z,14.40
2022-10-03T18:31:22.986Z,14.40
2022-10-03T18:34:01.676Z,14.30
2022-10-03T18:36:38.148Z,14.30
2022-10-03T18:39:20.954Z,14.30
2022-10-03T18:41:55.179Z,14.20
2022-10-03T18:44:30.095Z,14.20
2022-10-03T18:48:09.418Z,14.10
2022-10-03T18:51:01.275Z,14.00
2022-10-03T18:53:39.881Z,13.90
2022-10-03T18:56:27.371Z,13.80
2022-10-03T18:59:37.212Z,13.80
2022-10-03T19:02:06.050Z,13.70
2022-10-03T19:04:50.541Z,13.70
2022-10-03T19:07:32.934Z,13.70
2022-10-03T19:10:24.830Z,13.70
2022-10-03T19:13:16.425Z,13.60
2022-10-03T19:15:58.162Z,13.60
2022-10-03T19:18:59.071Z,13.50
2022-10-03T19:21:28.038Z,13.50
2022-10-03T19:24:05.223Z,13.50
2022-10-03T19:26:38.247Z,13.40
2022-10-03T19:29:09.919Z,13.40
2022-10-03T19:31:44.373Z,13.30
2022-10-03T19:34:34.347Z,13.30
2022-10-03T19:37:02.645Z,13.30
2022-10-03T19:39:33.065Z,13.20
2022-10-03T19:42:18.615Z,13.10
2022-10-03T19:44:46.184Z,13.20
2022-10-03T19:47:23.778Z,13.10
2022-10-03T19:50:19.300Z,13.10
2022-10-03T19:52:47.806Z,13.00
2022-10-03T19:55:20.317Z,13.00
2022-10-03T19:57:50.537Z,13.00
2022-10-03T20:00:17.590Z,12.90
2022-10-03T20:02:53.083Z,12.90
2022-10-03T20:05:33.351Z,12.90
2022-10-03T20:08:24.160Z,12.90
2022-10-03T20:11:06.818Z,12.80
2022-10-03T20:13:35.631Z,12.80
2022-10-03T20:16:04.505Z,12.80
2022-10-03T20:18:35.697Z,12.80
2022-10-03T20:21:10.668Z,12.80
2022-10-03T20:23:42.859Z,12.80
2022-10-03T20:26:18.183Z,12.80
2022-10-03T20:28:52.931Z,12.80
2022-10-03T20:31:26.268Z,12.80
2022-10-03T20:33:56.682Z,12.80
2022-10-03T20:36:30.463Z,12.80
2022-10-03T20:39:12.618Z,12.90
2022-10-03T20:42:02.228Z,12.80
2022-10-03T20:45:11.389Z,12.80
2022-10-03T20:47:48.250Z,12.90
2022-10-03T20:50:30.551Z,12.80
2022-10-03T20:53:12.841Z,12.80
2022-10-03T20:55:50.085Z,12.90
2022-10-03T20:58:40.141Z,12.80
2022-10-03T21:01:16.796Z,12.80
2022-10-03T21:04:05.072Z,12.80
2022-10-03T21:07:04.715Z,12.80
2022-10-03T21:10:05.244Z,12.80
2022-10-03T21:12:39.953Z,12.80
2022-10-03T21:15:29.604Z,12.80
2022-10-03T21:17:58.241Z,12.80
2022-10-03T21:20:37.801Z,12.70
2022-10-03T21:23:33.015Z,12.70
2022-10-03T21:26:01.602Z,12.70
2022-10-03T21:28:34.942Z,12.70
2022-10-03T21:31:24.933Z,12.60
2022-10-03T21:34:12.813Z,12.60
2022-10-03T21:36:50.115Z,12.60
2022-10-03T21:39:36.635Z,12.60
2022-10-03T21:42:34.645Z,12.70
2022-10-03T21:45:12.781Z,12.60
2022-10-03T21:48:06.254Z,12.60
2022-10-03T21:50:45.070Z,12.60
2022-10-03T21:53:18.747Z,12.60
2022-10-03T21:56:10.197Z,12.60
2022-10-03T21:59:03.840Z,12.60
2022-10-03T22:01:52.401Z,12.60
2022-10-03T22:04:56.680Z,12.50
2022-10-03T22:07:41.934Z,12.60
2022-10-03T22:10:21.753Z,12.50
2022-10-03T22:13:05.555Z,12.50
2022-10-03T22:15:42.780Z,12.50
2022-10-03T22:18:15.227Z,12.40
2022-10-03T22:21:06.082Z,12.40
2022-10-03T22:23:46.261Z,12.30
2022-10-03T22:26:35.632Z,12.30
2022-10-03T22:29:24.014Z,12.20
2022-10-03T22:32:18.969Z,12.20
2022-10-03T22:34:55.187Z,12.20
2022-10-03T22:37:23.883Z,12.10
2022-10-03T22:39:52.138Z,12.10
2022-10-03T22:42:20.756Z,12.00
2022-10-03T22:44:52.044Z,12.00
2022-10-03T22:47:30.193Z,12.00
2022-10-03T22:50:06.499Z,12.00
2022-10-03T22:52:38.545Z,12.00
2022-10-03T22:55:08.751Z,12.00
2022-10-03T22:57:36.759Z,12.00
2022-10-03T23:00:11.243Z,12.00
2022-10-03T23:02:52.981Z,12.00
2022-10-03T23:05:39.886Z,12.00
2022-10-03T23:08:28.803Z,12.00
2022-10-03T23:11:04.406Z,11.90
2022-10-03T23:13:39.837Z,12.00
2022-10-03T23:16:37.669Z,12.00
2022-10-03T23:19:25.936Z,12.00
2022-10-03T23:21:58.277Z,12.00
2022-10-03T23:24:28.798Z,11.90
2022-10-03T23:26:56.340Z,11.90
2022-10-03T23:29:24.359Z,11.90
2022-10-03T23:32:10.974Z,11.90
2022-10-03T23:34:38.310Z,11.90
2022-10-03T23:37:14.849Z,11.90
2022-10-03T23:39:56.212Z,11.90
2022-10-03T23:42:33.150Z,11.90
2022-10-03T23:45:09.929Z,12.00
2022-10-03T23:47:46.758Z,12.00
2022-10-03T23:50:24.694Z,12.00
2022-10-03T23:52:57.590Z,11.90
2022-10-03T23:55:30.133Z,12.00
2022-10-03T23:57:58.017Z,12.00
